Time;durP1;ratioP1;P1;durP2;ratioP2;P2;SDS_P1;SDS_P2;PMS_P1;PMS_P2;Temp;Humidity;BMP_temperature;BMP_pressure;BME280_temperature;BME280_humidity;BME280_pressure;Samples;Min_cycle;Max_cycle;Signal;HPM_P1;HPM_P2
2021/06/30 00:02:20;;;;;;;24.10;14.20;;;17.20;99.90;;;;;;6255845;23;20491;-82
2021/06/30 00:04:47;;;;;;;20.33;12.13;;;17.20;99.90;;;;;;6255129;23;20403;-82
2021/06/30 00:07:21;;;;;;;20.70;13.17;;;17.20;99.90;;;;;;6255070;23;20451;-82
2021/06/30 00:09:48;;;;;;;28.77;18.57;;;17.20;99.90;;;;;;6253128;22;20483;-82
2021/06/30 00:12:15;;;;;;;21.17;14.67;;;17.20;99.90;;;;;;6254365;23;20419;-83
2021/06/30 00:14:42;;;;;;;33.83;20.67;;;17.10;99.90;;;;;;6255358;23;20535;-81
2021/06/30 00:17:09;;;;;;;25.27;16.97;;;17.10;99.90;;;;;;6253291;23;20495;-82
2021/06/30 00:19:37;;;;;;;26.30;18.30;;;17.10;99.90;;;;;;6253713;22;20451;-82
2021/06/30 00:22:04;;;;;;;27.93;19.73;;;17.20;99.90;;;;;;6254136;23;20415;-82
2021/06/30 00:24:33;;;;;;;32.47;21.97;;;17.20;99.90;;;;;;6254438;23;20423;-82
2021/06/30 00:27:00;;;;;;;24.40;17.17;;;17.20;99.90;;;;;;6253092;23;20439;-82
2021/06/30 00:29:27;;;;;;;23.30;17.00;;;17.10;99.90;;;;;;6253612;23;20487;-83
2021/06/30 00:31:54;;;;;;;34.80;22.03;;;17.20;99.90;;;;;;6255558;23;20411;-82
2021/06/30 00:34:20;;;;;;;29.30;19.60;;;17.20;99.90;;;;;;6256441;23;20411;-83
2021/06/30 00:36:47;;;;;;;35.80;21.10;;;17.10;99.90;;;;;;6256061;23;20482;-83
2021/06/30 00:39:15;;;;;;;35.07;20.33;;;17.20;99.90;;;;;;6253788;23;20834;-83
2021/06/30 00:41:44;;;;;;;29.37;17.33;;;17.10;99.90;;;;;;6255580;22;20435;-83
2021/06/30 00:44:12;;;;;;;25.43;16.27;;;17.10;99.90;;;;;;6255162;23;20418;-83
2021/06/30 00:46:39;;;;;;;23.90;15.00;;;17.10;99.90;;;;;;6254748;23;20435;-83
2021/06/30 00:49:07;;;;;;;26.97;16.50;;;17.10;99.90;;;;;;6253616;23;20436;-82
2021/06/30 00:51:35;;;;;;;25.67;15.93;;;17.10;99.90;;;;;;6254871;22;20848;-82
2021/06/30 00:54:02;;;;;;;28.10;16.77;;;17.20;99.90;;;;;;6253818;23;20498;-83
2021/06/30 00:56:29;;;;;;;29.83;16.97;;;17.10;99.90;;;;;;6255375;23;20459;-83
2021/06/30 00:59:00;;;;;;;30.10;18.77;;;17.10;99.90;;;;;;6254345;23;20418;-83
2021/06/30 01:01:28;;;;;;;32.77;19.37;;;17.00;99.90;;;;;;6254094;22;20420;-83
2021/06/30 01:03:55;;;;;;;27.10;18.33;;;17.00;99.90;;;;;;6253603;23;20768;-83
2021/06/30 01:06:22;;;;;;;36.30;20.87;;;17.00;99.90;;;;;;6253069;23;20436;-83
2021/06/30 01:08:49;;;;;;;29.23;17.27;;;17.00;99.90;;;;;;6253526;23;20443;-84
2021/06/30 01:11:18;;;;;;;34.40;20.47;;;17.00;99.90;;;;;;6253318;22;20428;-83
2021/06/30 01:13:47;;;;;;;36.13;18.60;;;17.10;99.90;;;;;;6254933;23;20897;-84
2021/06/30 01:16:16;;;;;;;30.77;18.57;;;17.00;99.90;;;;;;6254857;23;20443;-83
2021/06/30 01:18:43;;;;;;;24.07;16.17;;;17.00;99.90;;;;;;6253211;23;20415;-84
2021/06/30 01:21:11;;;;;;;24.47;16.20;;;16.90;99.90;;;;;;6253449;22;20491;-84
2021/06/30 01:23:40;;;;;;;24.60;16.23;;;16.90;99.90;;;;;;6252533;23;20479;-83
2021/06/30 01:26:14;;;;;;;21.90;14.50;;;16.80;99.90;;;;;;6253234;23;20412;-84
2021/06/30 01:28:41;;;;;;;25.07;15.60;;;16.70;99.90;;;;;;6252083;23;20397;-84
2021/06/30 01:31:11;;;;;;;25.80;16.50;;;16.80;99.90;;;;;;6253203;22;20460;-83
2021/06/30 01:33:37;;;;;;;31.67;19.00;;;16.80;99.90;;;;;;6251993;23;20388;-85
2021/06/30 01:36:07;;;;;;;23.13;14.80;;;16.80;99.90;;;;;;6251637;23;20518;-85
2021/06/30 01:38:36;;;;;;;19.10;12.57;;;16.80;99.90;;;;;;6251920;23;20428;-85
2021/06/30 01:41:08;;;;;;;26.90;15.90;;;16.90;99.90;;;;;;6251770;22;20452;-84
2021/06/30 01:43:37;;;;;;;21.60;13.10;;;16.90;99.90;;;;;;6253300;23;20396;-84
2021/06/30 01:46:04;;;;;;;22.40;13.97;;;16.80;99.90;;;;;;6254472;23;20921;-83
2021/06/30 01:48:31;;;;;;;20.27;12.37;;;16.70;99.90;;;;;;6254161;23;20407;-83
2021/06/30 01:50:58;;;;;;;22.30;12.90;;;16.70;99.90;;;;;;6254171;22;20530;-84
2021/06/30 01:53:25;;;;;;;24.60;13.57;;;16.80;99.90;;;;;;6255467;23;20439;-84
2021/06/30 01:55:51;;;;;;;23.70;14.67;;;16.80;99.90;;;;;;6253967;23;20549;-85
2021/06/30 01:58:22;;;;;;;19.50;12.17;;;16.80;99.90;;;;;;6260541;23;20407;-82
2021/06/30 02:00:55;;;;;;;19.90;13.00;;;16.80;99.90;;;;;;6270202;22;20424;-85
2021/06/30 02:03:22;;;;;;;25.53;17.23;;;16.80;99.90;;;;;;6270110;23;20407;-84
2021/06/30 02:05:49;;;;;;;30.67;15.13;;;16.80;99.90;;;;;;6269578;23;20418;-85
2021/06/30 02:08:17;;;;;;;19.97;12.90;;;16.90;99.90;;;;;;6269419;23;20416;-84
2021/06/30 02:10:45;;;;;;;20.03;13.97;;;16.80;99.90;;;;;;6269991;22;20420;-84
2021/06/30 02:13:12;;;;;;;28.80;16.97;;;16.80;99.90;;;;;;6269289;23;20391;-84
2021/06/30 02:15:41;;;;;;;22.23;15.13;;;16.80;99.90;;;;;;6263884;22;20486;-85
2021/06/30 02:18:09;;;;;;;23.97;15.73;;;16.80;99.90;;;;;;6253719;23;20418;-84
2021/06/30 02:20:36;;;;;;;24.10;15.83;;;16.90;99.90;;;;;;6253445;22;20435;-85
2021/06/30 02:23:03;;;;;;;23.00;15.40;;;16.90;99.90;;;;;;6253113;23;20475;-84
2021/06/30 02:25:31;;;;;;;22.83;14.80;;;16.90;99.90;;;;;;6252852;23;20396;-85
2021/06/30 02:27:59;;;;;;;21.60;14.50;;;16.90;99.90;;;;;;6252209;23;20479;-84
2021/06/30 02:30:29;;;;;;;25.53;15.50;;;16.80;99.90;;;;;;6253274;22;20431;-85
2021/06/30 02:32:59;;;;;;;19.13;13.97;;;16.70;99.90;;;;;;6254255;23;20415;-83
2021/06/30 02:35:26;;;;;;;24.07;14.57;;;16.70;99.90;;;;;;6254280;23;20463;-84
2021/06/30 02:37:56;;;;;;;20.47;13.50;;;16.60;99.90;;;;;;6257227;23;20392;-84
2021/06/30 02:40:24;;;;;;;19.83;12.30;;;16.70;99.90;;;;;;6256358;22;20427;-85
2021/06/30 02:42:52;;;;;;;20.20;11.93;;;16.70;99.90;;;;;;6259874;23;20908;-85
2021/06/30 02:45:20;;;;;;;24.00;15.27;;;16.70;99.90;;;;;;6258254;23;20502;-84
2021/06/30 02:47:49;;;;;;;17.83;12.00;;;16.60;99.90;;;;;;6258481;23;20407;-83
2021/06/30 02:50:19;;;;;;;23.30;15.13;;;16.70;99.90;;;;;;6195223;22;1451376;-85
2021/06/30 02:52:47;;;;;;;16.87;12.03;;;16.60;99.90;;;;;;6260158;23;20630;-84
2021/06/30 02:55:14;;;;;;;18.77;12.40;;;16.70;99.90;;;;;;6260129;23;20502;-84
2021/06/30 02:57:41;;;;;;;15.67;10.67;;;16.60;99.90;;;;;;6259875;23;20418;-82
2021/06/30 03:00:11;;;;;;;19.60;14.37;;;16.60;99.90;;;;;;6260684;22;20757;-85
2021/06/30 03:02:38;;;;;;;16.70;11.30;;;16.60;99.90;;;;;;6260009;23;20392;-84
2021/06/30 03:05:06;;;;;;;16.23;9.90;;;16.60;99.90;;;;;;6260562;23;20431;-83
2021/06/30 03:07:35;;;;;;;24.40;12.90;;;16.70;99.90;;;;;;6262099;23;20408;-85
2021/06/30 03:10:02;;;;;;;17.00;11.37;;;16.60;99.90;;;;;;6258952;22;20432;-84
2021/06/30 03:12:29;;;;;;;15.63;10.07;;;16.70;99.90;;;;;;6259133;23;20508;-84
2021/06/30 03:14:56;;;;;;;14.10;10.17;;;16.70;99.90;;;;;;6259119;23;21091;-84
2021/06/30 03:17:23;;;;;;;20.00;13.07;;;16.60;99.90;;;;;;6259124;23;20460;-83
2021/06/30 03:19:50;;;;;;;15.10;9.50;;;16.50;99.90;;;;;;6256607;22;20534;-83
2021/06/30 03:22:17;;;;;;;15.30;10.63;;;16.60;99.90;;;;;;6258432;23;20435;-84
2021/06/30 03:24:45;;;;;;;15.27;10.30;;;16.70;99.90;;;;;;6257760;23;20439;-83
2021/06/30 03:27:12;;;;;;;16.73;11.63;;;16.60;99.90;;;;;;6256351;23;20438;-84
2021/06/30 03:29:39;;;;;;;15.00;10.50;;;16.70;99.90;;;;;;6257303;22;20470;-85
2021/06/30 03:32:06;;;;;;;23.90;14.23;;;16.60;99.90;;;;;;6256289;23;20447;-84
2021/06/30 03:34:33;;;;;;;15.70;10.27;;;16.70;99.90;;;;;;6257772;23;20447;-83
2021/06/30 03:37:00;;;;;;;15.90;10.60;;;16.70;99.90;;;;;;6257442;23;20555;-84
2021/06/30 03:39:27;;;;;;;16.13;11.60;;;16.70;99.90;;;;;;6256412;23;20447;-84
2021/06/30 03:41:56;;;;;;;17.27;11.90;;;16.60;99.90;;;;;;6256113;23;20482;-83
2021/06/30 03:44:23;;;;;;;16.80;10.30;;;16.60;99.90;;;;;;6257792;23;20427;-84
2021/06/30 03:46:50;;;;;;;17.53;12.70;;;16.70;99.90;;;;;;6256038;23;20432;-83
2021/06/30 03:49:17;;;;;;;17.27;10.87;;;16.60;99.90;;;;;;6258298;23;20431;-83
2021/06/30 03:51:44;;;;;;;16.23;11.43;;;16.50;99.90;;;;;;6257500;22;20515;-84
2021/06/30 03:54:11;;;;;;;16.10;10.20;;;16.60;99.90;;;;;;6261309;22;20454;-85
2021/06/30 03:56:38;;;;;;;14.67;9.97;;;16.70;99.90;;;;;;6282690;22;20442;-85
2021/06/30 03:59:08;;;;;;;16.90;10.30;;;16.90;99.90;;;;;;6282999;22;20917;-86
2021/06/30 04:01:43;;;;;;;17.40;9.40;;;16.70;99.90;;;;;;6283132;22;20414;-85
2021/06/30 04:04:12;;;;;;;17.77;10.93;;;16.60;99.90;;;;;;6284553;22;20951;-85
2021/06/30 04:06:39;;;;;;;13.43;9.50;;;16.70;99.90;;;;;;6283073;22;20433;-84
2021/06/30 04:09:06;;;;;;;15.80;10.37;;;16.70;99.90;;;;;;6283045;22;20422;-84
2021/06/30 04:11:33;;;;;;;14.20;8.60;;;16.70;99.90;;;;;;6283613;22;20406;-84
2021/06/30 04:14:00;;;;;;;14.33;10.07;;;16.70;99.90;;;;;;6283643;22;20431;-84
2021/06/30 04:16:28;;;;;;;13.77;9.00;;;16.80;99.90;;;;;;6290755;22;20541;-83
2021/06/30 04:18:56;;;;;;;16.23;10.37;;;16.80;99.90;;;;;;6293025;22;20406;-84
2021/06/30 04:21:23;;;;;;;17.57;8.80;;;16.90;99.90;;;;;;6286851;22;20466;-84
2021/06/30 04:23:53;;;;;;;19.10;12.63;;;16.90;99.90;;;;;;6282329;22;20770;-86
2021/06/30 04:26:19;;;;;;;15.93;9.83;;;16.80;99.90;;;;;;6281855;22;20433;-84
2021/06/30 04:28:46;;;;;;;20.30;12.27;;;16.70;99.90;;;;;;6280524;22;20439;-85
2021/06/30 04:31:13;;;;;;;17.40;11.30;;;16.70;99.90;;;;;;6280030;22;20900;-85
2021/06/30 04:33:42;;;;;;;17.47;11.70;;;16.60;99.90;;;;;;6280117;22;20426;-85
2021/06/30 04:36:09;;;;;;;17.57;10.67;;;16.60;99.90;;;;;;6278340;22;20521;-85
2021/06/30 04:38:36;;;;;;;22.60;13.27;;;16.70;99.90;;;;;;6279455;22;20775;-85
2021/06/30 04:41:03;;;;;;;17.40;12.90;;;16.70;99.90;;;;;;6283317;22;20438;-85
2021/06/30 04:43:30;;;;;;;17.30;11.27;;;16.60;99.90;;;;;;6284424;22;20458;-84
2021/06/30 04:45:57;;;;;;;19.00;13.43;;;16.70;99.90;;;;;;6282615;22;20434;-84
2021/06/30 04:48:24;;;;;;;16.60;10.40;;;16.70;99.90;;;;;;6283701;22;20457;-85
2021/06/30 04:50:52;;;;;;;19.90;13.17;;;16.80;99.90;;;;;;6284807;22;20423;-84
2021/06/30 04:53:20;;;;;;;16.67;9.80;;;16.80;99.90;;;;;;6284434;22;20487;-84
2021/06/30 04:55:47;;;;;;;15.80;9.40;;;16.80;99.90;;;;;;6284348;22;20391;-84
2021/06/30 04:58:14;;;;;;;16.77;10.00;;;16.80;99.90;;;;;;6284092;22;20417;-85
2021/06/30 05:00:41;;;;;;;18.80;10.37;;;16.80;99.90;;;;;;6284769;22;20992;-84
2021/06/30 05:03:08;;;;;;;14.50;9.20;;;17.00;99.90;;;;;;6284887;22;20407;-84
2021/06/30 05:05:35;;;;;;;17.63;11.00;;;17.00;99.90;;;;;;6285149;22;20411;-84
2021/06/30 05:08:04;;;;;;;19.60;12.10;;;17.10;99.90;;;;;;6284778;22;20445;-84
2021/06/30 05:10:31;;;;;;;15.70;10.20;;;17.00;99.90;;;;;;6284665;22;20442;-84
2021/06/30 05:12:58;;;;;;;17.30;11.90;;;17.00;99.90;;;;;;6286609;22;20413;-84
2021/06/30 05:15:25;;;;;;;19.80;12.13;;;17.00;99.90;;;;;;6285545;22;20494;-84
2021/06/30 05:17:51;;;;;;;20.30;12.70;;;17.00;99.90;;;;;;6286193;22;20502;-84
2021/06/30 05:20:18;;;;;;;16.13;11.77;;;17.00;99.90;;;;;;6286926;22;20411;-84
2021/06/30 05:22:45;;;;;;;17.73;10.67;;;17.20;99.90;;;;;;6286680;22;20979;-84
2021/06/30 05:25:14;;;;;;;15.03;9.40;;;17.10;99.90;;;;;;6289554;22;20447;-84
2021/06/30 05:27:42;;;;;;;16.67;11.23;;;17.10;99.90;;;;;;6295657;22;20414;-84
2021/06/30 05:30:10;;;;;;;18.07;11.47;;;17.20;99.90;;;;;;6294014;22;20418;-84
2021/06/30 05:32:37;;;;;;;16.80;12.50;;;17.30;99.90;;;;;;6292189;22;20912;-84
2021/06/30 05:35:04;;;;;;;15.47;10.63;;;17.20;99.90;;;;;;6286216;22;20462;-84
2021/06/30 05:37:31;;;;;;;13.77;8.90;;;17.20;99.90;;;;;;6285817;22;20995;-84
2021/06/30 05:39:58;;;;;;;15.87;8.80;;;17.20;99.90;;;;;;6286801;22;20407;-85
2021/06/30 05:42:27;;;;;;;15.60;8.30;;;17.10;99.90;;;;;;6282220;22;20468;-84
2021/06/30 05:44:54;;;;;;;14.03;6.87;;;17.10;99.90;;;;;;6282181;22;20431;-83
2021/06/30 05:47:22;;;;;;;14.90;7.73;;;17.40;99.90;;;;;;6281292;22;20399;-83
2021/06/30 05:49:51;;;;;;;13.50;8.53;;;17.40;99.90;;;;;;6282262;22;20433;-84
2021/06/30 05:52:18;;;;;;;12.63;7.57;;;17.40;99.90;;;;;;6281693;22;20453;-85
2021/06/30 05:54:45;;;;;;;14.40;8.57;;;17.30;99.90;;;;;;6281236;22;20833;-85
2021/06/30 05:57:12;;;;;;;13.27;6.50;;;17.40;99.90;;;;;;6281006;22;21046;-86
2021/06/30 05:59:40;;;;;;;17.53;9.10;;;17.50;99.90;;;;;;6281392;22;20481;-85
2021/06/30 06:02:07;;;;;;;12.33;6.57;;;17.50;99.90;;;;;;6281603;22;20427;-85
2021/06/30 06:04:34;;;;;;;11.40;5.53;;;17.50;99.90;;;;;;6282079;22;20484;-84
2021/06/30 06:07:01;;;;;;;10.23;5.50;;;17.40;99.90;;;;;;6281619;22;20493;-86
2021/06/30 06:09:28;;;;;;;9.67;4.07;;;17.50;99.90;;;;;;6280394;22;20482;-85
2021/06/30 06:11:54;;;;;;;10.57;5.37;;;17.50;99.90;;;;;;6280713;22;20939;-84
2021/06/30 06:14:21;;;;;;;12.30;5.07;;;17.60;99.90;;;;;;6281229;22;20430;-84
2021/06/30 06:16:49;;;;;;;10.37;4.50;;;17.80;99.90;;;;;;6282983;22;20830;-85
2021/06/30 06:19:16;;;;;;;9.00;5.00;;;17.70;99.90;;;;;;6282825;22;20410;-82
2021/06/30 06:21:43;;;;;;;10.70;4.97;;;17.70;99.90;;;;;;6282631;22;20775;-85
2021/06/30 06:24:10;;;;;;;9.67;4.10;;;17.70;99.90;;;;;;6280702;22;20435;-83
2021/06/30 06:26:39;;;;;;;8.00;3.47;;;17.90;99.90;;;;;;6281220;22;20497;-84
2021/06/30 06:29:06;;;;;;;11.03;4.17;;;17.90;99.90;;;;;;6282128;22;20438;-84
2021/06/30 06:31:33;;;;;;;10.40;3.43;;;17.90;99.90;;;;;;6282449;22;20402;-84
2021/06/30 06:34:01;;;;;;;13.13;3.90;;;18.00;99.90;;;;;;6283359;22;20430;-86
2021/06/30 06:36:28;;;;;;;10.27;3.77;;;18.10;99.90;;;;;;6282165;22;20414;-86
2021/06/30 06:38:55;;;;;;;8.00;3.03;;;18.10;99.90;;;;;;6283800;22;20438;-85
2021/06/30 06:41:22;;;;;;;9.90;3.17;;;18.10;99.90;;;;;;6282203;22;20407;-84
2021/06/30 06:43:51;;;;;;;10.83;3.17;;;18.30;99.90;;;;;;6282537;22;21034;-85
2021/06/30 06:46:19;;;;;;;8.53;3.03;;;18.30;99.90;;;;;;6285368;22;20406;-83
2021/06/30 06:48:45;;;;;;;8.57;3.77;;;18.40;99.90;;;;;;6288392;22;20441;-84
2021/06/30 06:51:13;;;;;;;7.43;3.27;;;18.50;99.90;;;;;;6290367;22;20466;-88
2021/06/30 06:53:40;;;;;;;9.27;3.40;;;18.40;99.90;;;;;;6284565;22;20849;-86
2021/06/30 06:56:11;;;;;;;13.50;3.90;;;18.40;99.90;;;;;;6282930;22;20441;-85
2021/06/30 06:58:38;;;;;;;10.80;4.60;;;18.40;99.90;;;;;;6282926;22;20427;-84
2021/06/30 07:01:06;;;;;;;8.40;3.33;;;18.50;99.90;;;;;;6281539;22;20442;-85
2021/06/30 07:03:33;;;;;;;10.47;4.20;;;18.10;99.90;;;;;;6284494;22;20431;-85
2021/06/30 07:06:00;;;;;;;7.67;3.50;;;18.20;99.90;;;;;;6282423;22;20493;-85
2021/06/30 07:08:29;;;;;;;8.30;3.93;;;18.20;99.90;;;;;;6282659;22;20493;-84
2021/06/30 07:11:11;;;;;;;8.30;3.90;;;18.10;99.90;;;;;;6287845;22;20489;-84
2021/06/30 07:13:39;;;;;;;8.63;4.03;;;18.20;99.90;;;;;;6278937;22;20525;-86
2021/06/30 07:16:07;;;;;;;9.10;4.40;;;18.30;99.90;;;;;;6283746;22;20813;-85
2021/06/30 07:18:35;;;;;;;12.33;4.67;;;18.50;99.90;;;;;;6285928;22;20499;-85
2021/06/30 07:21:03;;;;;;;10.20;4.43;;;18.50;99.90;;;;;;6283920;22;20489;-84
2021/06/30 07:23:32;;;;;;;9.57;4.83;;;18.70;99.90;;;;;;6283576;22;20458;-83
2021/06/30 07:25:59;;;;;;;8.30;4.20;;;18.70;99.90;;;;;;6283680;22;20490;-84
2021/06/30 07:28:27;;;;;;;16.10;5.33;;;18.90;99.90;;;;;;6283626;22;20790;-81
2021/06/30 07:30:54;;;;;;;25.83;6.67;;;18.80;99.90;;;;;;6282495;22;20481;-83
2021/06/30 07:33:21;;;;;;;9.43;5.87;;;18.70;99.90;;;;;;6280121;22;20772;-83
2021/06/30 07:35:48;;;;;;;10.97;5.30;;;18.80;99.90;;;;;;6279135;22;20442;-84
2021/06/30 07:38:15;;;;;;;11.20;6.00;;;18.90;99.90;;;;;;6278879;22;20527;-84
2021/06/30 07:40:44;;;;;;;9.63;5.70;;;19.00;99.90;;;;;;6279083;22;20438;-82
2021/06/30 07:43:14;;;;;;;12.43;5.97;;;19.20;99.90;;;;;;6286624;22;20525;-84
2021/06/30 07:45:40;;;;;;;13.03;5.30;;;19.30;99.90;;;;;;6282246;22;20762;-83
2021/06/30 07:48:08;;;;;;;9.77;5.60;;;19.60;99.90;;;;;;6284043;22;20427;-84
2021/06/30 07:50:35;;;;;;;19.03;5.80;;;19.70;99.90;;;;;;6282723;22;20417;-83
2021/06/30 07:53:02;;;;;;;12.87;6.10;;;20.00;99.90;;;;;;6286278;22;20485;-85
2021/06/30 07:55:29;;;;;;;12.43;4.17;;;20.20;99.90;;;;;;6284078;22;20902;-83
2021/06/30 07:57:57;;;;;;;9.40;4.27;;;20.40;99.90;;;;;;6284264;22;20457;-84
2021/06/30 08:00:24;;;;;;;11.20;5.00;;;20.30;99.90;;;;;;6285001;22;20486;-84
2021/06/30 08:02:51;;;;;;;12.40;5.57;;;20.10;99.90;;;;;;6282713;22;20449;-84
2021/06/30 08:05:17;;;;;;;11.10;5.40;;;20.30;99.90;;;;;;6285862;22;20415;-84
2021/06/30 08:07:44;;;;;;;14.33;4.80;;;20.20;99.90;;;;;;6284304;22;20434;-84
2021/06/30 08:10:11;;;;;;;9.80;4.60;;;20.30;99.90;;;;;;6286150;22;20430;-83
2021/06/30 08:12:38;;;;;;;9.70;4.50;;;20.40;99.90;;;;;;6284989;22;20742;-84
2021/06/30 08:15:09;;;;;;;10.10;4.40;;;20.60;99.90;;;;;;6283494;22;20466;-83
2021/06/30 08:17:36;;;;;;;8.50;3.73;;;20.30;99.90;;;;;;6283318;22;20948;-84
2021/06/30 08:20:03;;;;;;;9.80;4.30;;;20.50;99.90;;;;;;6282151;22;20493;-84
2021/06/30 08:22:30;;;;;;;9.57;4.10;;;20.30;99.90;;;;;;6283840;22;20454;-84
2021/06/30 08:24:57;;;;;;;9.47;3.67;;;20.30;99.90;;;;;;6283357;22;20415;-84
2021/06/30 08:27:23;;;;;;;12.73;4.77;;;20.30;99.90;;;;;;6284974;22;20809;-84
2021/06/30 08:29:50;;;;;;;9.53;4.10;;;20.00;99.90;;;;;;6282638;22;20418;-83
2021/06/30 08:32:21;;;;;;;9.07;4.00;;;20.30;99.90;;;;;;6284430;22;20406;-82
2021/06/30 08:34:47;;;;;;;9.50;3.63;;;20.80;99.90;;;;;;6280439;22;20499;-84
2021/06/30 08:37:14;;;;;;;10.73;3.63;;;21.20;99.90;;;;;;6284391;22;20521;-84
2021/06/30 08:39:41;;;;;;;24.40;4.70;;;21.50;99.90;;;;;;6287104;22;20407;-83
2021/06/30 08:42:08;;;;;;;9.00;2.80;;;21.70;99.90;;;;;;6284881;22;20411;-84
2021/06/30 08:44:36;;;;;;;7.80;2.57;;;21.60;99.90;;;;;;6285190;22;20963;-84
2021/06/30 08:47:03;;;;;;;10.77;3.30;;;21.60;99.90;;;;;;6284289;22;20407;-84
2021/06/30 08:49:35;;;;;;;16.23;3.80;;;21.20;99.90;;;;;;6285237;22;20409;-84
2021/06/30 08:52:04;;;;;;;11.00;6.00;;;20.90;99.90;;;;;;6288169;22;20395;-84
2021/06/30 08:54:33;;;;;;;13.83;5.30;;;20.90;99.90;;;;;;6295250;22;20462;-84
2021/06/30 08:57:01;;;;;;;14.60;8.73;;;20.80;99.90;;;;;;6290802;22;20422;-84
2021/06/30 08:59:28;;;;;;;15.00;8.70;;;20.80;99.90;;;;;;6287835;22;20482;-84
2021/06/30 09:01:55;;;;;;;17.17;6.00;;;20.70;99.90;;;;;;6288922;22;20407;-84
2021/06/30 09:04:22;;;;;;;9.47;4.10;;;20.60;99.90;;;;;;6289399;22;20427;-84
2021/06/30 09:06:51;;;;;;;10.33;4.13;;;20.70;99.90;;;;;;6286956;22;20449;-84
2021/06/30 09:09:19;;;;;;;12.33;4.80;;;20.90;99.90;;;;;;6287508;22;20427;-84
2021/06/30 09:11:54;;;;;;;10.10;4.60;;;21.00;99.90;;;;;;6289204;22;20407;-86
2021/06/30 09:14:24;;;;;;;10.63;3.90;;;21.20;99.90;;;;;;6289547;22;20458;-86
2021/06/30 09:17:00;;;;;;;10.43;4.27;;;21.70;99.90;;;;;;6288055;22;20411;-83
2021/06/30 09:19:53;;;;;;;10.43;3.77;;;21.70;99.90;;;;;;6287278;22;20763;-84
2021/06/30 09:22:24;;;;;;;8.97;4.10;;;22.00;99.90;;;;;;6301364;22;20417;-81
2021/06/30 09:24:51;;;;;;;12.00;4.57;;;22.10;99.90;;;;;;6300567;22;20414;-81
2021/06/30 09:27:19;;;;;;;10.40;4.63;;;21.40;99.90;;;;;;6296914;22;20437;-80
2021/06/30 09:29:47;;;;;;;10.40;5.00;;;21.20;99.90;;;;;;6292316;22;20415;-81
2021/06/30 09:32:16;;;;;;;10.50;5.80;;;21.00;99.90;;;;;;6287708;22;20418;-82
2021/06/30 09:34:44;;;;;;;10.77;4.67;;;20.90;99.90;;;;;;6287581;22;20453;-81
2021/06/30 09:37:11;;;;;;;12.80;3.60;;;20.90;99.90;;;;;;6286297;22;20442;-81
2021/06/30 09:39:55;;;;;;;9.30;3.50;;;21.10;99.90;;;;;;6284140;22;20399;-81
2021/06/30 09:42:22;;;;;;;8.83;3.10;;;21.70;99.90;;;;;;6284609;22;20477;-81
2021/06/30 09:44:50;;;;;;;8.87;2.90;;;21.90;99.90;;;;;;6287661;22;20465;-81
2021/06/30 09:47:18;;;;;;;7.97;2.50;;;21.90;99.90;;;;;;6288999;22;20422;-81
2021/06/30 09:49:55;;;;;;;8.63;2.10;;;21.70;99.90;;;;;;6289813;22;20414;-81
2021/06/30 09:52:22;;;;;;;10.10;2.20;;;22.00;99.90;;;;;;6287928;22;20391;-80
2021/06/30 09:54:51;;;;;;;7.50;2.20;;;22.10;99.90;;;;;;6287948;22;20494;-85
2021/06/30 09:57:19;;;;;;;9.90;2.50;;;21.90;99.90;;;;;;6288150;22;20414;-80
2021/06/30 09:59:47;;;;;;;14.60;2.40;;;22.30;99.90;;;;;;6286334;22;20437;-81
2021/06/30 10:02:16;;;;;;;9.47;2.30;;;22.20;99.90;;;;;;6283209;22;20474;-83
2021/06/30 10:04:45;;;;;;;10.93;3.23;;;22.50;99.90;;;;;;6290695;22;20434;-82
2021/06/30 10:07:14;;;;;;;9.67;2.90;;;22.60;99.90;;;;;;6290263;22;20907;-82
2021/06/30 10:12:38;;;;;;;9.93;3.10;;;22.40;99.90;;;;;;5129622;27;20564;-83
2021/06/30 10:15:07;;;;;;;8.23;2.17;;;22.30;99.90;;;;;;5118345;28;20446;-84
2021/06/30 10:17:35;;;;;;;11.80;2.53;;;22.20;99.90;;;;;;5102574;28;20486;-85
2021/06/30 10:20:03;;;;;;;10.60;4.17;;;22.40;99.90;;;;;;5118776;28;20513;-85
2021/06/30 10:22:31;;;;;;;11.30;3.10;;;22.20;99.90;;;;;;5123986;28;20457;-83
2021/06/30 10:24:58;;;;;;;14.70;2.90;;;21.80;99.90;;;;;;5128512;28;20453;-82
2021/06/30 10:27:26;;;;;;;10.53;2.33;;;21.70;99.90;;;;;;5121901;28;20453;-85
2021/06/30 10:29:57;;;;;;;8.40;2.10;;;21.50;99.90;;;;;;5112457;28;20470;-83
2021/06/30 10:32:24;;;;;;;7.93;1.57;;;21.40;99.90;;;;;;5102467;28;20486;-83
2021/06/30 10:34:55;;;;;;;11.30;2.00;;;21.20;99.90;;;;;;5106307;28;20441;-83
2021/06/30 10:37:24;;;;;;;8.40;1.50;;;21.30;99.90;;;;;;5114890;28;20476;-83
2021/06/30 10:39:52;;;;;;;9.17;1.70;;;21.20;99.90;;;;;;5113685;28;21176;-84
2021/06/30 10:42:32;;;;;;;11.40;2.33;;;21.30;99.90;;;;;;5100541;28;20470;-82
2021/06/30 10:45:03;;;;;;;8.17;1.97;;;21.40;99.90;;;;;;5122637;28;20430;-84
2021/06/30 10:47:40;;;;;;;9.90;2.30;;;21.70;99.90;;;;;;5119341;28;20454;-83
2021/06/30 10:50:29;;;;;;;13.47;2.50;;;21.70;99.90;;;;;;5116364;28;20985;-83
2021/06/30 10:52:58;;;;;;;9.60;2.03;;;21.80;99.90;;;;;;5123791;28;20548;-84
2021/06/30 10:55:51;;;;;;;10.13;2.70;;;21.50;99.90;;;;;;5119754;28;20441;-84
2021/06/30 10:58:19;;;;;;;11.17;2.90;;;21.20;99.90;;;;;;5109922;28;20465;-81
2021/06/30 11:00:50;;;;;;;8.17;2.10;;;21.20;99.90;;;;;;5117981;28;20489;-84
2021/06/30 11:03:29;;;;;;;9.97;2.17;;;21.00;99.90;;;;;;5124006;28;20499;-83
2021/06/30 11:05:57;;;;;;;17.07;2.90;;;20.90;99.90;;;;;;5112565;28;20506;-83
2021/06/30 11:08:45;;;;;;;9.40;1.97;;;21.00;99.90;;;;;;5110864;28;20509;-84
2021/06/30 11:11:16;;;;;;;9.20;1.90;;;20.60;99.90;;;;;;5112626;28;21038;-85
2021/06/30 11:13:53;;;;;;;8.73;2.17;;;20.60;99.90;;;;;;5104772;28;20522;-84
2021/06/30 11:16:53;;;;;;;8.60;2.20;;;20.60;99.90;;;;;;5103888;28;20477;-84
2021/06/30 11:19:42;;;;;;;8.90;2.50;;;20.30;99.90;;;;;;5096586;28;20450;-84
2021/06/30 11:22:31;;;;;;;9.17;3.37;;;20.50;99.90;;;;;;5099172;28;20815;-84
2021/06/30 11:25:01;;;;;;;10.33;3.53;;;20.40;99.90;;;;;;5091298;28;20513;-84
2021/06/30 11:27:51;;;;;;;13.80;3.17;;;20.50;99.90;;;;;;5094472;28;20530;-85
2021/06/30 11:30:33;;;;;;;9.60;2.60;;;20.50;99.90;;;;;;5081249;28;21054;-83
2021/06/30 11:33:02;;;;;;;8.43;2.00;;;20.50;99.90;;;;;;5091751;28;20898;-83
2021/06/30 11:35:35;;;;;;;10.10;2.63;;;20.30;99.90;;;;;;5099413;28;20525;-84
2021/06/30 11:38:21;;;;;;;9.00;2.93;;;20.50;99.90;;;;;;5086014;28;20436;-84
2021/06/30 11:41:03;;;;;;;9.43;2.93;;;20.50;99.90;;;;;;5080168;28;20524;-83
2021/06/30 11:43:32;;;;;;;9.80;3.50;;;20.50;99.90;;;;;;5080894;28;20447;-83
2021/06/30 11:46:01;;;;;;;8.63;3.40;;;20.60;99.90;;;;;;5084415;28;20442;-83
2021/06/30 11:51:13;;;;;;;9.83;2.30;;;20.40;99.90;;;;;;5095031;28;20526;-83
2021/06/30 11:53:46;;;;;;;8.57;2.10;;;20.20;99.90;;;;;;5093807;28;20511;-83
2021/06/30 11:56:18;;;;;;;9.17;2.37;;;20.10;99.90;;;;;;5090190;28;20447;-84
2021/06/30 11:58:51;;;;;;;10.10;2.40;;;20.40;99.90;;;;;;5085044;28;20467;-84
2021/06/30 12:01:26;;;;;;;9.80;2.60;;;20.20;99.90;;;;;;5091508;28;20467;-84
2021/06/30 12:04:30;;;;;;;8.90;3.30;;;20.30;99.90;;;;;;5092138;28;20487;-83
2021/06/30 12:07:02;;;;;;;9.53;3.97;;;20.20;99.90;;;;;;5033820;28;20438;-83
2021/06/30 12:09:31;;;;;;;9.80;3.90;;;19.90;99.90;;;;;;5036707;28;20460;-84
2021/06/30 12:12:03;;;;;;;10.60;4.10;;;20.20;99.90;;;;;;5076005;28;20482;-83
2021/06/30 12:14:31;;;;;;;11.50;5.20;;;20.00;99.90;;;;;;5105865;28;20464;-82
2021/06/30 12:17:02;;;;;;;11.73;5.03;;;20.30;99.90;;;;;;5106974;28;20446;-83
2021/06/30 12:19:42;;;;;;;10.70;4.63;;;20.30;99.90;;;;;;5105198;28;20502;-83
2021/06/30 12:22:20;;;;;;;10.00;4.10;;;20.60;99.90;;;;;;5099853;28;20505;-83
2021/06/30 12:24:51;;;;;;;10.50;3.90;;;20.60;99.90;;;;;;5087353;28;20486;-85
2021/06/30 12:27:18;;;;;;;9.60;3.70;;;20.60;99.90;;;;;;5087683;28;20457;-84
2021/06/30 12:29:45;;;;;;;10.53;3.67;;;20.60;99.90;;;;;;5089444;28;20451;-84
2021/06/30 12:32:14;;;;;;;9.60;3.53;;;20.90;99.90;;;;;;5102891;28;20553;-85
2021/06/30 12:34:46;;;;;;;10.77;5.07;;;20.70;99.90;;;;;;5102865;28;20447;-85
2021/06/30 12:37:29;;;;;;;11.90;5.63;;;20.90;99.90;;;;;;5097975;28;20446;-84
2021/06/30 12:40:08;;;;;;;13.90;7.87;;;20.80;99.90;;;;;;5104874;28;20442;-86
2021/06/30 12:43:03;;;;;;;12.20;6.87;;;20.90;99.90;;;;;;5090391;28;20462;-84
2021/06/30 12:45:38;;;;;;;11.77;5.33;;;20.80;99.90;;;;;;5075308;28;20447;-84
2021/06/30 12:48:07;;;;;;;10.80;5.63;;;20.60;99.90;;;;;;5097063;28;20442;-83
2021/06/30 12:50:40;;;;;;;10.37;5.33;;;20.30;99.90;;;;;;5092646;28;20469;-87
2021/06/30 12:53:11;;;;;;;12.80;6.97;;;20.30;99.90;;;;;;5090108;28;20486;-85